sensor_id;sensor_type;location;lat;lon;timestamp;temperature;humidity
11615;DHT22;5863;52.832;4.758;2023-05-10T00:00:44;12.60;99.90
11615;DHT22;5863;52.832;4.758;2023-05-10T00:03:10;12.60;99.90
11615;DHT22;5863;52.832;4.758;2023-05-10T00:05:37;12.60;99.90
11615;DHT22;5863;52.832;4.758;2023-05-10T00:08:04;12.60;99.90
11615;DHT22;5863;52.832;4.758;2023-05-10T00:10:30;12.60;99.90
11615;DHT22;5863;52.832;4.758;2023-05-10T00:12:57;12.60;99.90
11615;DHT22;5863;52.832;4.758;2023-05-10T00:15:24;12.60;99.90
11615;DHT22;5863;52.832;4.758;2023-05-10T00:17:52;12.60;99.90
11615;DHT22;5863;52.832;4.758;2023-05-10T00:20:18;12.50;99.90
11615;DHT22;5863;52.832;4.758;2023-05-10T00:22:45;12.50;99.90
11615;DHT22;5863;52.832;4.758;2023-05-10T00:25:12;12.60;99.90
11615;DHT22;5863;52.832;4.758;2023-05-10T00:27:39;12.50;99.90
11615;DHT22;5863;52.832;4.758;2023-05-10T00:30:06;12.60;99.90
11615;DHT22;5863;52.832;4.758;2023-05-10T00:32:33;12.70;99.90
11615;DHT22;5863;52.832;4.758;2023-05-10T00:35:02;12.60;99.90
11615;DHT22;5863;52.832;4.758;2023-05-10T00:37:29;12.60;99.90
11615;DHT22;5863;52.832;4.758;2023-05-10T00:39:56;12.50;99.90
11615;DHT22;5863;52.832;4.758;2023-05-10T00:42:22;12.50;99.90
11615;DHT22;5863;52.832;4.758;2023-05-10T00:44:49;12.50;99.90
11615;DHT22;5863;52.832;4.758;2023-05-10T00:47:17;12.50;99.90
11615;DHT22;5863;52.832;4.758;2023-05-10T00:49:44;12.50;99.90
11615;DHT22;5863;52.832;4.758;2023-05-10T00:52:13;12.50;99.90
11615;DHT22;5863;52.832;4.758;2023-05-10T00:54:40;12.40;99.90
11615;DHT22;5863;52.832;4.758;2023-05-10T00:57:07;12.40;99.90
11615;DHT22;5863;52.832;4.758;2023-05-10T00:59:34;12.40;99.90
11615;DHT22;5863;52.832;4.758;2023-05-10T01:02:01;12.40;99.90
11615;DHT22;5863;52.832;4.758;2023-05-10T01:04:30;12.50;99.90
11615;DHT22;5863;52.832;4.758;2023-05-10T01:06:56;12.40;99.90
11615;DHT22;5863;52.832;4.758;2023-05-10T01:09:24;12.40;99.90
11615;DHT22;5863;52.832;4.758;2023-05-10T01:11:53;12.40;99.90
11615;DHT22;5863;52.832;4.758;2023-05-10T01:14:20;12.40;99.90
11615;DHT22;5863;52.832;4.758;2023-05-10T01:16:48;12.40;99.90
11615;DHT22;5863;52.832;4.758;2023-05-10T01:19:19;12.40;99.90
11615;DHT22;5863;52.832;4.758;2023-05-10T01:21:53;12.40;99.90
11615;DHT22;5863;52.832;4.758;2023-05-10T01:24:56;12.40;99.90
11615;DHT22;5863;52.832;4.758;2023-05-10T01:28:07;12.40;99.90
11615;DHT22;5863;52.832;4.758;2023-05-10T01:31:03;12.40;99.90
11615;DHT22;5863;52.832;4.758;2023-05-10T01:33:38;12.40;99.90
11615;DHT22;5863;52.832;4.758;2023-05-10T01:36:11;12.40;99.90
11615;DHT22;5863;52.832;4.758;2023-05-10T01:38:43;12.40;99.90
11615;DHT22;5863;52.832;4.758;2023-05-10T01:41:16;12.40;99.90
11615;DHT22;5863;52.832;4.758;2023-05-10T01:43:50;12.40;99.90
11615;DHT22;5863;52.832;4.758;2023-05-10T01:46:25;12.30;99.90
11615;DHT22;5863;52.832;4.758;2023-05-10T01:48:57;12.30;99.90
11615;DHT22;5863;52.832;4.758;2023-05-10T01:51:29;12.30;99.90
11615;DHT22;5863;52.832;4.758;2023-05-10T01:54:01;12.30;99.90
11615;DHT22;5863;52.832;4.758;2023-05-10T01:56:30;12.30;99.90
11615;DHT22;5863;52.832;4.758;2023-05-10T01:58:59;12.30;99.90
11615;DHT22;5863;52.832;4.758;2023-05-10T02:01:26;12.20;99.90
11615;DHT22;5863;52.832;4.758;2023-05-10T02:03:55;12.30;99.90
11615;DHT22;5863;52.832;4.758;2023-05-10T02:06:24;12.20;99.90
11615;DHT22;5863;52.832;4.758;2023-05-10T02:08:52;12.20;99.90
11615;DHT22;5863;52.832;4.758;2023-05-10T02:11:20;12.20;99.90
11615;DHT22;5863;52.832;4.758;2023-05-10T02:13:49;12.20;99.90
11615;DHT22;5863;52.832;4.758;2023-05-10T02:16:17;12.20;99.90
11615;DHT22;5863;52.832;4.758;2023-05-10T02:18:45;12.20;99.90
11615;DHT22;5863;52.832;4.758;2023-05-10T02:21:15;12.20;99.90
11615;DHT22;5863;52.832;4.758;2023-05-10T02:23:43;12.20;99.90
11615;DHT22;5863;52.832;4.758;2023-05-10T02:26:11;12.20;99.90
11615;DHT22;5863;52.832;4.758;2023-05-10T02:28:45;12.20;99.90
11615;DHT22;5863;52.832;4.758;2023-05-10T02:31:12;12.20;99.90
11615;DHT22;5863;52.832;4.758;2023-05-10T02:33:39;12.10;99.90
11615;DHT22;5863;52.832;4.758;2023-05-10T02:36:07;12.10;99.90
11615;DHT22;5863;52.832;4.758;2023-05-10T02:38:37;12.10;99.90
11615;DHT22;5863;52.832;4.758;2023-05-10T02:41:05;12.10;99.90
11615;DHT22;5863;52.832;4.758;2023-05-10T02:43:35;12.00;99.90
11615;DHT22;5863;52.832;4.758;2023-05-10T02:46:02;12.10;99.90
11615;DHT22;5863;52.832;4.758;2023-05-10T02:48:29;12.10;99.90
11615;DHT22;5863;52.832;4.758;2023-05-10T02:51:02;12.10;99.90
11615;DHT22;5863;52.832;4.758;2023-05-10T02:53:32;12.00;99.90
11615;DHT22;5863;52.832;4.758;2023-05-10T02:56:05;12.10;99.90
11615;DHT22;5863;52.832;4.758;2023-05-10T02:58:32;12.10;99.90
11615;DHT22;5863;52.832;4.758;2023-05-10T03:00:59;12.00;99.90
11615;DHT22;5863;52.832;4.758;2023-05-10T03:03:30;12.00;99.90
11615;DHT22;5863;52.832;4.758;2023-05-10T03:05:57;12.00;99.90
11615;DHT22;5863;52.832;4.758;2023-05-10T03:08:24;12.00;99.90
11615;DHT22;5863;52.832;4.758;2023-05-10T03:10:59;12.10;99.90
11615;DHT22;5863;52.832;4.758;2023-05-10T03:13:39;12.10;99.90
11615;DHT22;5863;52.832;4.758;2023-05-10T03:16:08;12.00;99.90
11615;DHT22;5863;52.832;4.758;2023-05-10T03:18:42;12.00;99.90
11615;DHT22;5863;52.832;4.758;2023-05-10T03:21:11;12.10;99.90
11615;DHT22;5863;52.832;4.758;2023-05-10T03:23:43;12.00;99.90
11615;DHT22;5863;52.832;4.758;2023-05-10T03:26:17;12.00;99.90
11615;DHT22;5863;52.832;4.758;2023-05-10T03:28:45;12.00;99.90
11615;DHT22;5863;52.832;4.758;2023-05-10T03:31:14;12.00;99.90
11615;DHT22;5863;52.832;4.758;2023-05-10T03:33:46;12.00;99.90
11615;DHT22;5863;52.832;4.758;2023-05-10T03:36:13;12.00;99.90
11615;DHT22;5863;52.832;4.758;2023-05-10T03:38:40;12.00;99.90
11615;DHT22;5863;52.832;4.758;2023-05-10T03:41:07;12.00;99.90
11615;DHT22;5863;52.832;4.758;2023-05-10T03:43:33;12.00;99.90
11615;DHT22;5863;52.832;4.758;2023-05-10T03:46:03;12.00;99.90
11615;DHT22;5863;52.832;4.758;2023-05-10T03:48:29;12.00;99.90
11615;DHT22;5863;52.832;4.758;2023-05-10T03:50:56;12.00;99.90
11615;DHT22;5863;52.832;4.758;2023-05-10T03:53:23;12.10;99.90
11615;DHT22;5863;52.832;4.758;2023-05-10T03:55:49;12.10;99.90
11615;DHT22;5863;52.832;4.758;2023-05-10T03:58:16;12.10;99.90
11615;DHT22;5863;52.832;4.758;2023-05-10T04:00:43;12.00;99.90
11615;DHT22;5863;52.832;4.758;2023-05-10T04:03:12;12.00;99.90
11615;DHT22;5863;52.832;4.758;2023-05-10T04:05:39;12.00;99.90
11615;DHT22;5863;52.832;4.758;2023-05-10T04:08:06;12.10;99.90
11615;DHT22;5863;52.832;4.758;2023-05-10T04:10:33;12.00;99.90
11615;DHT22;5863;52.832;4.758;2023-05-10T04:12:59;12.00;99.90
11615;DHT22;5863;52.832;4.758;2023-05-10T04:15:26;12.00;99.90
11615;DHT22;5863;52.832;4.758;2023-05-10T04:17:53;12.10;99.90
11615;DHT22;5863;52.832;4.758;2023-05-10T04:20:24;12.10;99.90
11615;DHT22;5863;52.832;4.758;2023-05-10T04:22:51;12.10;99.90
11615;DHT22;5863;52.832;4.758;2023-05-10T04:25:17;12.10;99.90
11615;DHT22;5863;52.832;4.758;2023-05-10T04:27:44;12.10;99.90
11615;DHT22;5863;52.832;4.758;2023-05-10T04:30:11;12.10;99.90
11615;DHT22;5863;52.832;4.758;2023-05-10T04:32:38;12.10;99.90
11615;DHT22;5863;52.832;4.758;2023-05-10T04:35:05;12.10;99.90
11615;DHT22;5863;52.832;4.758;2023-05-10T04:37:35;12.10;99.90
11615;DHT22;5863;52.832;4.758;2023-05-10T04:40:03;12.10;99.90
11615;DHT22;5863;52.832;4.758;2023-05-10T04:42:30;12.20;99.90
11615;DHT22;5863;52.832;4.758;2023-05-10T04:44:57;12.20;99.90
11615;DHT22;5863;52.832;4.758;2023-05-10T04:47:24;12.20;99.90
11615;DHT22;5863;52.832;4.758;2023-05-10T04:49:51;12.10;99.90
11615;DHT22;5863;52.832;4.758;2023-05-10T04:52:17;12.20;99.90
11615;DHT22;5863;52.832;4.758;2023-05-10T04:54:45;12.20;99.90
11615;DHT22;5863;52.832;4.758;2023-05-10T04:57:13;12.20;99.90
11615;DHT22;5863;52.832;4.758;2023-05-10T04:59:40;12.20;99.90
11615;DHT22;5863;52.832;4.758;2023-05-10T05:02:06;12.20;99.90
11615;DHT22;5863;52.832;4.758;2023-05-10T05:04:33;12.20;99.90
11615;DHT22;5863;52.832;4.758;2023-05-10T05:07:00;12.20;99.90
11615;DHT22;5863;52.832;4.758;2023-05-10T05:09:26;12.20;99.90
11615;DHT22;5863;52.832;4.758;2023-05-10T05:11:54;12.30;99.90
11615;DHT22;5863;52.832;4.758;2023-05-10T05:14:21;12.30;99.90
11615;DHT22;5863;52.832;4.758;2023-05-10T05:16:48;12.30;99.90
11615;DHT22;5863;52.832;4.758;2023-05-10T05:19:14;12.30;99.90
11615;DHT22;5863;52.832;4.758;2023-05-10T05:21:41;12.30;99.90
11615;DHT22;5863;52.832;4.758;2023-05-10T05:24:08;12.30;99.90
11615;DHT22;5863;52.832;4.758;2023-05-10T05:26:36;12.30;99.90
11615;DHT22;5863;52.832;4.758;2023-05-10T05:29:04;12.30;99.90
11615;DHT22;5863;52.832;4.758;2023-05-10T05:31:31;12.30;99.90
11615;DHT22;5863;52.832;4.758;2023-05-10T05:33:59;12.40;99.90
11615;DHT22;5863;52.832;4.758;2023-05-10T05:36:25;12.40;99.90
11615;DHT22;5863;52.832;4.758;2023-05-10T05:38:54;12.40;99.90
11615;DHT22;5863;52.832;4.758;2023-05-10T05:41:20;12.40;99.90
11615;DHT22;5863;52.832;4.758;2023-05-10T05:43:55;12.50;99.90
11615;DHT22;5863;52.832;4.758;2023-05-10T05:46:23;12.50;99.90
11615;DHT22;5863;52.832;4.758;2023-05-10T05:48:49;12.40;99.90
11615;DHT22;5863;52.832;4.758;2023-05-10T05:51:16;12.50;99.90
11615;DHT22;5863;52.832;4.758;2023-05-10T05:53:49;12.50;99.90
11615;DHT22;5863;52.832;4.758;2023-05-10T05:56:15;12.50;99.90
11615;DHT22;5863;52.832;4.758;2023-05-10T05:58:43;12.60;99.90
11615;DHT22;5863;52.832;4.758;2023-05-10T06:01:10;12.50;99.90
11615;DHT22;5863;52.832;4.758;2023-05-10T06:03:38;12.60;99.90
11615;DHT22;5863;52.832;4.758;2023-05-10T06:06:17;12.60;99.90
11615;DHT22;5863;52.832;4.758;2023-05-10T06:08:44;12.70;99.90
11615;DHT22;5863;52.832;4.758;2023-05-10T06:11:11;12.70;99.90
11615;DHT22;5863;52.832;4.758;2023-05-10T06:13:37;12.70;99.90
11615;DHT22;5863;52.832;4.758;2023-05-10T06:16:05;12.70;99.90
11615;DHT22;5863;52.832;4.758;2023-05-10T06:18:32;12.80;99.90
11615;DHT22;5863;52.832;4.758;2023-05-10T06:21:00;12.80;99.90
11615;DHT22;5863;52.832;4.758;2023-05-10T06:23:26;12.80;99.90
11615;DHT22;5863;52.832;4.758;2023-05-10T06:25:54;12.80;99.90
11615;DHT22;5863;52.832;4.758;2023-05-10T06:28:20;12.90;99.90
11615;DHT22;5863;52.832;4.758;2023-05-10T06:30:47;12.90;99.90
11615;DHT22;5863;52.832;4.758;2023-05-10T06:33:14;13.00;99.90
11615;DHT22;5863;52.832;4.758;2023-05-10T06:35:41;13.00;99.90
11615;DHT22;5863;52.832;4.758;2023-05-10T06:38:09;13.00;99.90
11615;DHT22;5863;52.832;4.758;2023-05-10T06:40:36;13.10;99.90
11615;DHT22;5863;52.832;4.758;2023-05-10T06:43:10;13.10;99.90
11615;DHT22;5863;52.832;4.758;2023-05-10T06:45:37;13.10;99.90
11615;DHT22;5863;52.832;4.758;2023-05-10T06:48:04;13.20;99.90
11615;DHT22;5863;52.832;4.758;2023-05-10T06:50:31;13.20;99.90
11615;DHT22;5863;52.832;4.758;2023-05-10T06:53:01;13.20;99.90
11615;DHT22;5863;52.832;4.758;2023-05-10T06:55:30;13.20;99.90
11615;DHT22;5863;52.832;4.758;2023-05-10T06:57:57;13.30;99.90
11615;DHT22;5863;52.832;4.758;2023-05-10T07:00:24;13.30;99.90
11615;DHT22;5863;52.832;4.758;2023-05-10T07:02:50;13.30;99.90
11615;DHT22;5863;52.832;4.758;2023-05-10T07:05:17;13.40;99.90
11615;DHT22;5863;52.832;4.758;2023-05-10T07:07:45;13.40;99.90
11615;DHT22;5863;52.832;4.758;2023-05-10T07:10:11;13.50;99.90
11615;DHT22;5863;52.832;4.758;2023-05-10T07:12:40;13.50;99.90
11615;DHT22;5863;52.832;4.758;2023-05-10T07:15:08;13.60;99.90
11615;DHT22;5863;52.832;4.758;2023-05-10T07:17:35;13.60;99.90
11615;DHT22;5863;52.832;4.758;2023-05-10T07:20:09;13.70;99.90
11615;DHT22;5863;52.832;4.758;2023-05-10T07:22:36;13.80;99.90
11615;DHT22;5863;52.832;4.758;2023-05-10T07:25:03;13.90;99.90
11615;DHT22;5863;52.832;4.758;2023-05-10T07:27:29;13.90;99.90
11615;DHT22;5863;52.832;4.758;2023-05-10T07:29:57;14.00;99.90
11615;DHT22;5863;52.832;4.758;2023-05-10T07:32:24;14.10;99.90
11615;DHT22;5863;52.832;4.758;2023-05-10T07:34:51;14.20;99.90
11615;DHT22;5863;52.832;4.758;2023-05-10T07:37:18;14.30;99.90
11615;DHT22;5863;52.832;4.758;2023-05-10T07:39:44;14.40;99.90
11615;DHT22;5863;52.832;4.758;2023-05-10T07:42:11;14.50;99.90
11615;DHT22;5863;52.832;4.758;2023-05-10T07:44:38;14.50;99.90
11615;DHT22;5863;52.832;4.758;2023-05-10T07:47:06;14.60;99.90
11615;DHT22;5863;52.832;4.758;2023-05-10T07:49:33;14.70;99.90
11615;DHT22;5863;52.832;4.758;2023-05-10T07:52:01;14.80;99.90
11615;DHT22;5863;52.832;4.758;2023-05-10T07:54:33;14.80;99.90
11615;DHT22;5863;52.832;4.758;2023-05-10T07:57:00;14.90;99.90
11615;DHT22;5863;52.832;4.758;2023-05-10T07:59:26;14.90;99.90
11615;DHT22;5863;52.832;4.758;2023-05-10T08:01:53;14.90;99.90
11615;DHT22;5863;52.832;4.758;2023-05-10T08:04:21;14.90;99.90
11615;DHT22;5863;52.832;4.758;2023-05-10T08:06:49;14.90;99.90
11615;DHT22;5863;52.832;4.758;2023-05-10T08:09:16;14.80;99.90
11615;DHT22;5863;52.832;4.758;2023-05-10T08:11:43;14.70;99.90
11615;DHT22;5863;52.832;4.758;2023-05-10T08:14:09;14.70;99.90
11615;DHT22;5863;52.832;4.758;2023-05-10T08:16:36;14.70;99.90
11615;DHT22;5863;52.832;4.758;2023-05-10T08:19:03;14.60;99.90
11615;DHT22;5863;52.832;4.758;2023-05-10T08:21:31;14.60;99.90
11615;DHT22;5863;52.832;4.758;2023-05-10T08:23:57;14.60;99.90
11615;DHT22;5863;52.832;4.758;2023-05-10T08:26:24;14.70;99.90
11615;DHT22;5863;52.832;4.758;2023-05-10T08:28:51;14.90;99.90
11615;DHT22;5863;52.832;4.758;2023-05-10T08:31:18;14.90;99.90
11615;DHT22;5863;52.832;4.758;2023-05-10T08:33:46;14.90;99.90
11615;DHT22;5863;52.832;4.758;2023-05-10T08:36:13;14.80;99.90
11615;DHT22;5863;52.832;4.758;2023-05-10T08:38:46;14.80;99.90
11615;DHT22;5863;52.832;4.758;2023-05-10T08:41:20;14.80;99.90
11615;DHT22;5863;52.832;4.758;2023-05-10T08:43:47;14.80;99.90
11615;DHT22;5863;52.832;4.758;2023-05-10T08:46:14;14.80;99.90
11615;DHT22;5863;52.832;4.758;2023-05-10T08:48:43;14.90;99.90
11615;DHT22;5863;52.832;4.758;2023-05-10T08:51:13;15.00;99.90
11615;DHT22;5863;52.832;4.758;2023-05-10T08:53:42;15.10;99.90
11615;DHT22;5863;52.832;4.758;2023-05-10T08:56:10;15.20;99.90
11615;DHT22;5863;52.832;4.758;2023-05-10T08:58:38;15.20;99.90
11615;DHT22;5863;52.832;4.758;2023-05-10T09:01:05;15.30;99.90
11615;DHT22;5863;52.832;4.758;2023-05-10T09:03:32;15.30;99.90
11615;DHT22;5863;52.832;4.758;2023-05-10T09:05:59;15.40;99.90
11615;DHT22;5863;52.832;4.758;2023-05-10T09:08:26;15.40;99.90
11615;DHT22;5863;52.832;4.758;2023-05-10T09:10:53;15.50;99.90
11615;DHT22;5863;52.832;4.758;2023-05-10T09:13:23;15.50;99.90
11615;DHT22;5863;52.832;4.758;2023-05-10T09:15:51;15.60;99.90
11615;DHT22;5863;52.832;4.758;2023-05-10T09:18:18;15.60;99.90
11615;DHT22;5863;52.832;4.758;2023-05-10T09:20:45;15.60;99.90
11615;DHT22;5863;52.832;4.758;2023-05-10T09:23:11;15.60;99.90
11615;DHT22;5863;52.832;4.758;2023-05-10T09:25:38;15.60;99.90
11615;DHT22;5863;52.832;4.758;2023-05-10T09:28:07;15.70;99.90
11615;DHT22;5863;52.832;4.758;2023-05-10T09:30:36;15.70;99.90
11615;DHT22;5863;52.832;4.758;2023-05-10T09:33:03;15.60;99.90
11615;DHT22;5863;52.832;4.758;2023-05-10T09:35:31;15.50;99.90
11615;DHT22;5863;52.832;4.758;2023-05-10T09:38:01;15.40;99.90
11615;DHT22;5863;52.832;4.758;2023-05-10T09:40:29;15.50;99.90
11615;DHT22;5863;52.832;4.758;2023-05-10T09:42:58;15.50;99.90
11615;DHT22;5863;52.832;4.758;2023-05-10T09:45:26;15.60;99.90
11615;DHT22;5863;52.832;4.758;2023-05-10T09:47:55;15.70;99.90
11615;DHT22;5863;52.832;4.758;2023-05-10T09:50:22;15.70;99.90
11615;DHT22;5863;52.832;4.758;2023-05-10T09:52:51;15.70;99.90
11615;DHT22;5863;52.832;4.758;2023-05-10T09:55:20;15.80;99.90
11615;DHT22;5863;52.832;4.758;2023-05-10T09:57:47;15.90;99.90
11615;DHT22;5863;52.832;4.758;2023-05-10T10:00:18;15.90;99.90
11615;DHT22;5863;52.832;4.758;2023-05-10T10:02:47;15.90;99.90
11615;DHT22;5863;52.832;4.758;2023-05-10T10:05:16;16.00;99.90
11615;DHT22;5863;52.832;4.758;2023-05-10T10:07:43;16.00;99.90
11615;DHT22;5863;52.832;4.758;2023-05-10T10:10:10;16.00;99.90
11615;DHT22;5863;52.832;4.758;2023-05-10T10:12:39;16.00;99.90
11615;DHT22;5863;52.832;4.758;2023-05-10T10:15:08;16.10;99.90
11615;DHT22;5863;52.832;4.758;2023-05-10T10:17:36;16.20;99.90
11615;DHT22;5863;52.832;4.758;2023-05-10T10:20:04;16.20;99.90
11615;DHT22;5863;52.832;4.758;2023-05-10T10:22:32;16.30;99.90
11615;DHT22;5863;52.832;4.758;2023-05-10T10:24:59;16.30;99.90
11615;DHT22;5863;52.832;4.758;2023-05-10T10:27:35;16.40;99.90
11615;DHT22;5863;52.832;4.758;2023-05-10T10:30:13;16.40;99.90
11615;DHT22;5863;52.832;4.758;2023-05-10T10:32:59;16.40;99.90
11615;DHT22;5863;52.832;4.758;2023-05-10T10:35:29;16.40;99.90
11615;DHT22;5863;52.832;4.758;2023-05-10T10:37:58;16.40;99.90
11615;DHT22;5863;52.832;4.758;2023-05-10T10:40:26;16.40;99.90
11615;DHT22;5863;52.832;4.758;2023-05-10T10:42:53;16.40;99.90
11615;DHT22;5863;52.832;4.758;2023-05-10T10:45:21;16.30;99.90
11615;DHT22;5863;52.832;4.758;2023-05-10T10:47:48;16.20;99.90
11615;DHT22;5863;52.832;4.758;2023-05-10T10:50:17;16.30;99.90
11615;DHT22;5863;52.832;4.758;2023-05-10T10:52:44;16.30;99.90
11615;DHT22;5863;52.832;4.758;2023-05-10T10:55:14;16.30;99.90
11615;DHT22;5863;52.832;4.758;2023-05-10T10:57:45;16.30;99.90
11615;DHT22;5863;52.832;4.758;2023-05-10T11:00:29;16.40;99.90
11615;DHT22;5863;52.832;4.758;2023-05-10T11:02:58;16.60;99.90
11615;DHT22;5863;52.832;4.758;2023-05-10T11:05:39;16.60;99.90
11615;DHT22;5863;52.832;4.758;2023-05-10T11:08:18;16.70;99.90
11615;DHT22;5863;52.832;4.758;2023-05-10T11:11:12;16.70;99.90
11615;DHT22;5863;52.832;4.758;2023-05-10T11:13:41;16.80;99.90
11615;DHT22;5863;52.832;4.758;2023-05-10T11:16:18;16.90;99.90
11615;DHT22;5863;52.832;4.758;2023-05-10T11:18:53;17.10;99.90
11615;DHT22;5863;52.832;4.758;2023-05-10T11:21:20;17.10;99.90
11615;DHT22;5863;52.832;4.758;2023-05-10T11:23:51;17.20;99.90
11615;DHT22;5863;52.832;4.758;2023-05-10T11:26:23;17.30;99.90
11615;DHT22;5863;52.832;4.758;2023-05-10T11:28:53;17.40;99.90
11615;DHT22;5863;52.832;4.758;2023-05-10T11:31:20;17.50;99.90
11615;DHT22;5863;52.832;4.758;2023-05-10T11:33:49;17.60;99.90
11615;DHT22;5863;52.832;4.758;2023-05-10T11:36:17;17.60;99.90
11615;DHT22;5863;52.832;4.758;2023-05-10T11:38:44;17.70;99.90
11615;DHT22;5863;52.832;4.758;2023-05-10T11:41:11;17.70;99.90
11615;DHT22;5863;52.832;4.758;2023-05-10T11:43:40;17.80;99.90
11615;DHT22;5863;52.832;4.758;2023-05-10T11:46:09;17.90;99.90
11615;DHT22;5863;52.832;4.758;2023-05-10T11:48:37;18.00;99.90
11615;DHT22;5863;52.832;4.758;2023-05-10T11:51:05;18.10;99.90
11615;DHT22;5863;52.832;4.758;2023-05-10T11:53:32;17.90;99.90
11615;DHT22;5863;52.832;4.758;2023-05-10T11:56:06;17.90;99.90
11615;DHT22;5863;52.832;4.758;2023-05-10T11:58:36;17.80;99.90
11615;DHT22;5863;52.832;4.758;2023-05-10T12:01:06;17.90;99.90
11615;DHT22;5863;52.832;4.758;2023-05-10T12:03:34;17.80;99.90
11615;DHT22;5863;52.832;4.758;2023-05-10T12:06:02;17.80;99.90
11615;DHT22;5863;52.832;4.758;2023-05-10T12:08:30;17.70;99.90
11615;DHT22;5863;52.832;4.758;2023-05-10T12:11:05;17.70;99.90
11615;DHT22;5863;52.832;4.758;2023-05-10T12:13:32;17.70;99.90
11615;DHT22;5863;52.832;4.758;2023-05-10T12:16:13;17.60;99.90
11615;DHT22;5863;52.832;4.758;2023-05-10T12:18:41;17.70;99.90
11615;DHT22;5863;52.832;4.758;2023-05-10T12:21:09;17.70;99.90
11615;DHT22;5863;52.832;4.758;2023-05-10T12:23:38;17.70;99.90
11615;DHT22;5863;52.832;4.758;2023-05-10T12:26:05;17.70;99.90
11615;DHT22;5863;52.832;4.758;2023-05-10T12:28:33;17.60;99.90
11615;DHT22;5863;52.832;4.758;2023-05-10T12:31:01;17.40;99.90
11615;DHT22;5863;52.832;4.758;2023-05-10T12:33:35;17.30;99.90
11615;DHT22;5863;52.832;4.758;2023-05-10T12:36:03;17.20;99.90
11615;DHT22;5863;52.832;4.758;2023-05-10T12:38:33;17.20;99.90
11615;DHT22;5863;52.832;4.758;2023-05-10T12:41:01;17.30;99.90
11615;DHT22;5863;52.832;4.758;2023-05-10T12:43:29;17.30;99.90
11615;DHT22;5863;52.832;4.758;2023-05-10T12:45:56;17.40;99.90
11615;DHT22;5863;52.832;4.758;2023-05-10T12:48:23;17.50;99.90
11615;DHT22;5863;52.832;4.758;2023-05-10T12:50:51;17.60;99.90
11615;DHT22;5863;52.832;4.758;2023-05-10T12:53:18;17.60;99.90
11615;DHT22;5863;52.832;4.758;2023-05-10T12:55:44;17.60;99.90
11615;DHT22;5863;52.832;4.758;2023-05-10T12:58:11;17.40;99.90
11615;DHT22;5863;52.832;4.758;2023-05-10T13:00:38;17.30;99.90
11615;DHT22;5863;52.832;4.758;2023-05-10T13:03:04;17.40;99.90
11615;DHT22;5863;52.832;4.758;2023-05-10T13:05:31;17.60;99.90
11615;DHT22;5863;52.832;4.758;2023-05-10T13:08:00;17.60;99.90
11615;DHT22;5863;52.832;4.758;2023-05-10T13:10:27;17.60;99.90
11615;DHT22;5863;52.832;4.758;2023-05-10T13:12:54;17.50;99.90
11615;DHT22;5863;52.832;4.758;2023-05-10T13:15:22;17.50;99.90
11615;DHT22;5863;52.832;4.758;2023-05-10T13:17:49;17.60;99.90
11615;DHT22;5863;52.832;4.758;2023-05-10T13:20:16;17.60;99.90
11615;DHT22;5863;52.832;4.758;2023-05-10T13:22:43;17.60;99.90
11615;DHT22;5863;52.832;4.758;2023-05-10T13:25:11;17.60;99.90
11615;DHT22;5863;52.832;4.758;2023-05-10T13:27:39;17.60;99.90
11615;DHT22;5863;52.832;4.758;2023-05-10T13:30:07;17.60;99.90
11615;DHT22;5863;52.832;4.758;2023-05-10T13:32:34;17.40;99.90
11615;DHT22;5863;52.832;4.758;2023-05-10T13:35:01;17.40;99.90
11615;DHT22;5863;52.832;4.758;2023-05-10T13:37:28;17.50;99.90
11615;DHT22;5863;52.832;4.758;2023-05-10T13:39:55;17.40;99.90
11615;DHT22;5863;52.832;4.758;2023-05-10T13:42:25;17.40;99.90
11615;DHT22;5863;52.832;4.758;2023-05-10T13:44:52;17.30;99.90
11615;DHT22;5863;52.832;4.758;2023-05-10T13:47:19;17.20;99.90
11615;DHT22;5863;52.832;4.758;2023-05-10T13:49:47;17.30;99.90
11615;DHT22;5863;52.832;4.758;2023-05-10T13:52:13;17.10;99.90
11615;DHT22;5863;52.832;4.758;2023-05-10T13:54:40;17.10;99.90
11615;DHT22;5863;52.832;4.758;2023-05-10T13:57:07;17.10;99.90
11615;DHT22;5863;52.832;4.758;2023-05-10T13:59:35;17.30;99.90
11615;DHT22;5863;52.832;4.758;2023-05-10T14:02:02;17.30;99.90
11615;DHT22;5863;52.832;4.758;2023-05-10T14:04:29;17.40;99.90
11615;DHT22;5863;52.832;4.758;2023-05-10T14:06:56;17.40;99.90
11615;DHT22;5863;52.832;4.758;2023-05-10T14:09:23;17.60;99.90
11615;DHT22;5863;52.832;4.758;2023-05-10T14:11:50;17.70;99.90
11615;DHT22;5863;52.832;4.758;2023-05-10T14:14:17;17.70;99.90
11615;DHT22;5863;52.832;4.758;2023-05-10T14:16:45;17.70;99.90
11615;DHT22;5863;52.832;4.758;2023-05-10T14:19:11;17.80;99.90
11615;DHT22;5863;52.832;4.758;2023-05-10T14:21:38;17.80;99.90
11615;DHT22;5863;52.832;4.758;2023-05-10T14:24:05;17.80;99.90
11615;DHT22;5863;52.832;4.758;2023-05-10T14:26:32;17.70;99.90
11615;DHT22;5863;52.832;4.758;2023-05-10T14:28:59;17.60;99.90
11615;DHT22;5863;52.832;4.758;2023-05-10T14:31:26;17.50;99.90
11615;DHT22;5863;52.832;4.758;2023-05-10T14:33:55;17.40;99.90
11615;DHT22;5863;52.832;4.758;2023-05-10T14:36:22;17.40;99.90
11615;DHT22;5863;52.832;4.758;2023-05-10T14:38:48;17.50;99.90
11615;DHT22;5863;52.832;4.758;2023-05-10T14:41:15;17.40;99.90
11615;DHT22;5863;52.832;4.758;2023-05-10T14:43:43;17.40;99.90
11615;DHT22;5863;52.832;4.758;2023-05-10T14:46:09;17.30;99.90
11615;DHT22;5863;52.832;4.758;2023-05-10T14:48:36;17.30;99.90
11615;DHT22;5863;52.832;4.758;2023-05-10T14:51:04;17.30;99.90
11615;DHT22;5863;52.832;4.758;2023-05-10T14:53:32;17.20;99.90
11615;DHT22;5863;52.832;4.758;2023-05-10T14:55:58;17.10;99.90
11615;DHT22;5863;52.832;4.758;2023-05-10T14:58:26;17.10;99.90
11615;DHT22;5863;52.832;4.758;2023-05-10T15:00:53;17.00;99.90
11615;DHT22;5863;52.832;4.758;2023-05-10T15:03:20;17.00;99.90
11615;DHT22;5863;52.832;4.758;2023-05-10T15:05:47;17.00;99.90
11615;DHT22;5863;52.832;4.758;2023-05-10T15:08:15;17.10;99.90
11615;DHT22;5863;52.832;4.758;2023-05-10T15:10:42;17.00;99.90
11615;DHT22;5863;52.832;4.758;2023-05-10T15:13:09;17.00;99.90
11615;DHT22;5863;52.832;4.758;2023-05-10T15:15:35;17.00;99.90
11615;DHT22;5863;52.832;4.758;2023-05-10T15:18:02;17.00;99.90
11615;DHT22;5863;52.832;4.758;2023-05-10T15:20:29;17.00;99.90
11615;DHT22;5863;52.832;4.758;2023-05-10T15:22:56;17.00;99.90
11615;DHT22;5863;52.832;4.758;2023-05-10T15:25:24;16.80;99.90
11615;DHT22;5863;52.832;4.758;2023-05-10T15:27:51;16.80;99.90
11615;DHT22;5863;52.832;4.758;2023-05-10T15:30:18;16.80;99.90
11615;DHT22;5863;52.832;4.758;2023-05-10T15:32:45;16.80;99.90
11615;DHT22;5863;52.832;4.758;2023-05-10T15:35:12;16.90;99.90
11615;DHT22;5863;52.832;4.758;2023-05-10T15:37:39;16.80;99.90
11615;DHT22;5863;52.832;4.758;2023-05-10T15:40:06;16.70;99.90
11615;DHT22;5863;52.832;4.758;2023-05-10T15:42:34;16.70;99.90
11615;DHT22;5863;52.832;4.758;2023-05-10T15:45:03;16.70;99.90
11615;DHT22;5863;52.832;4.758;2023-05-10T15:47:30;16.80;99.90
11615;DHT22;5863;52.832;4.758;2023-05-10T15:49:57;16.70;99.90
11615;DHT22;5863;52.832;4.758;2023-05-10T15:52:24;16.60;99.90